Lisatud Ventusky ja DarkSky ilmakaart Menüü: Ilmakaardid-Ventusky/DarkSkyMap ! (21.05.22)

There is a communication problem. Go directly to the Meteoalarm site : www.meteoalarm.eu and check the Weather-warnings there .

Androidi ilma äpp QR kood - tiri moblasse ja saad head ilmaprognoosid! Ilm.apk

/home/edgarnuum/domains/hotserv.eq.ee/public_html/nautical/metar/metarDisplay.php

Nearby METAR Reports

   
EEKE - Kuressaare, Estonia
Distance from station: SE 3 km
Uuendatud: 03-07-2022 17:50
Clear  
Clear  
   Tuul: West 3.6 m/s
Tuul: West 3.6 m/s
Temperatuur: 25°C
Kastepunkt: 11°C
Niiskus: 42%
Baromeeter: 1020 hPa
Nähtavus: More than 10 km
Cloud details: Clear m
EEKE 031450Z 28007KT 220V340 CAVOK 25/11 Q1020
EEKA - Kardla, Estonia
Distance from station: NNE 84 km
Uuendatud: 03-07-2022 17:50
Clear  
Clear  
   Tuul: NW 4.1 m/s
Tuul: NW 4.1 m/s
Temperatuur: 23°C
Kastepunkt: 12°C
Niiskus: 50%
Baromeeter: 1019 hPa
Nähtavus: More than 10 km
Cloud details: Clear m
EEKA 031450Z 32008KT 280V350 CAVOK 23/12 Q1019
EEEI - Harjumaa Amari, Estonia
Distance from station: NE 151 km
Uuendatud: 03-07-2022 17:50
Clear  
Clear  
   Tuul: WNW 5.7 m/s
Tuul: WNW 5.7 m/s
Temperatuur: 22°C
Kastepunkt: 9°C
Niiskus: 44%
Baromeeter: 1019 hPa
Nähtavus: More than 10 km
Cloud details: Clear m
EEEI 031450Z AUTO 30011KT CAVOK 22/09 Q1019
EETN - Tallinn L. Meri, Estonia
Distance from station: NE 187 km
Uuendatud: 03-07-2022 17:50
Clear  
Clear  
   Tuul: West 7.2 m/s
Tuul: West 7.2 m/s
Temperatuur: 23°C
Kastepunkt: 8°C
Niiskus: 38%
Baromeeter: 1019 hPa
Nähtavus: More than 10 km
Cloud details: Clear m
EETN 031450Z 28014KT CAVOK 23/08 Q1019 NOSIG
EETU - Tartu, Estonia
Distance from station: E 245 km
Uuendatud: 03-07-2022 17:50
Few Clouds  
Few Clouds  
   Tuul: varies 1.5 m/s
Tuul: varies 1.5 m/s
Temperatuur: 25°C
Kastepunkt: 14°C
Niiskus: 51%
Baromeeter: 1018 hPa
Pilvisus: Few Clouds
Nähtavus: More than 10 km
Cloud details: Few Clouds 1554.5 m
EETU 031450Z AUTO VRB03KT 9999 FEW051/// 25/14 Q1018
 

Script developed by  Saratoga-weather.org Adapted for the template by  Weerstation Leuven